createdAt,value
2018-12-02T00:00:34.223Z,29.10
2018-12-02T00:03:04.608Z,29.80
2018-12-02T00:05:32.714Z,29.30
2018-12-02T00:08:00.911Z,30.30
2018-12-02T00:10:30.063Z,31.30
2018-12-02T00:12:58.188Z,30.50
2018-12-02T00:15:28.390Z,29.10
2018-12-02T00:18:11.696Z,28.40
2018-12-02T00:20:39.996Z,27.10
2018-12-02T00:23:10.370Z,25.90
2018-12-02T00:25:39.582Z,25.90
2018-12-02T00:28:14.706Z,24.70
2018-12-02T00:30:43.910Z,24.40
2018-12-02T00:33:12.826Z,24.70
2018-12-02T00:35:46.301Z,23.70
2018-12-02T00:38:16.421Z,23.70
2018-12-02T00:40:44.543Z,24.70
2018-12-02T00:43:18.719Z,24.10
2018-12-02T00:45:53.106Z,22.80
2018-12-02T00:48:37.512Z,21.60
2018-12-02T00:51:15.550Z,21.10
2018-12-02T00:53:43.671Z,20.30
2018-12-02T00:56:19.407Z,17.20
2018-12-02T00:58:47.619Z,15.70
2018-12-02T01:01:16.866Z,15.20
2018-12-02T01:03:46.063Z,16.80
2018-12-02T01:06:16.207Z,17.00
2018-12-02T01:08:45.394Z,17.80
2018-12-02T01:11:13.618Z,18.60
2018-12-02T01:13:42.767Z,20.00
2018-12-02T01:16:15.466Z,21.50
2018-12-02T01:18:43.602Z,23.00
2018-12-02T01:21:12.424Z,25.30
2018-12-02T01:23:43.875Z,27.50
2018-12-02T01:26:12.807Z,29.00
2018-12-02T01:28:50.939Z,31.60
2018-12-02T01:31:23.034Z,32.30
2018-12-02T01:33:55.818Z,32.30
2018-12-02T01:36:34.088Z,31.00
2018-12-02T01:39:02.179Z,30.70
2018-12-02T01:41:33.831Z,30.90
2018-12-02T01:44:03.974Z,30.10
2018-12-02T01:46:33.187Z,29.40
2018-12-02T01:49:04.738Z,29.70
2018-12-02T01:51:32.883Z,29.00
2018-12-02T01:54:02.087Z,28.30
2018-12-02T01:56:33.570Z,27.50
2018-12-02T01:59:01.810Z,25.80
2018-12-02T02:01:30.011Z,26.00
2018-12-02T02:04:03.715Z,25.20
2018-12-02T02:06:32.987Z,24.40
2018-12-02T02:09:03.131Z,23.90
2018-12-02T02:11:31.306Z,23.30
2018-12-02T02:13:59.446Z,21.90
2018-12-02T02:16:28.683Z,23.10
2018-12-02T02:18:56.827Z,22.10
2018-12-02T02:21:25.027Z,22.20
2018-12-02T02:23:55.273Z,22.30
2018-12-02T02:26:23.450Z,23.10
2018-12-02T02:28:52.622Z,22.50
2018-12-02T02:31:24.346Z,22.50
2018-12-02T02:33:52.467Z,23.10
2018-12-02T02:36:21.587Z,23.60
2018-12-02T02:38:49.832Z,23.60
2018-12-02T02:41:19.103Z,23.80
2018-12-02T02:43:47.255Z,23.50
2018-12-02T02:46:21.202Z,25.40
2018-12-02T02:48:49.335Z,25.40
2018-12-02T02:51:18.563Z,25.70
2018-12-02T02:53:46.726Z,25.30
2018-12-02T02:56:16.051Z,26.00
2018-12-02T02:58:51.214Z,26.00
2018-12-02T03:01:19.519Z,25.50
2018-12-02T03:03:47.975Z,25.80
2018-12-02T03:06:16.480Z,25.90
2018-12-02T03:08:56.627Z,26.00
2018-12-02T03:11:24.804Z,25.90
2018-12-02T03:13:53.139Z,26.30
2018-12-02T03:16:30.876Z,26.20
2018-12-02T03:18:59.251Z,25.40
2018-12-02T03:21:28.430Z,26.20
2018-12-02T03:23:56.706Z,25.30
2018-12-02T03:26:28.090Z,25.90
2018-12-02T03:28:56.304Z,26.20
2018-12-02T03:31:28.856Z,26.50
2018-12-02T03:33:57.034Z,26.20
2018-12-02T03:36:31.312Z,25.90
2018-12-02T03:39:13.448Z,25.40
2018-12-02T03:41:45.165Z,25.00
2018-12-02T03:44:13.403Z,25.60
2018-12-02T03:46:41.551Z,24.90
2018-12-02T03:49:09.730Z,25.30
2018-12-02T03:51:37.934Z,25.20
2018-12-02T03:54:06.122Z,25.00
2018-12-02T03:56:34.288Z,24.70
2018-12-02T03:59:15.740Z,23.40
2018-12-02T04:01:45.962Z,23.90
2018-12-02T04:04:21.308Z,24.60
2018-12-02T04:06:50.511Z,23.20
2018-12-02T04:09:24.892Z,24.50
2018-12-02T04:11:57.128Z,24.80
2018-12-02T04:14:45.963Z,24.90
2018-12-02T04:17:17.402Z,24.80
2018-12-02T04:19:50.067Z,25.00
2018-12-02T04:22:24.431Z,25.60
2018-12-02T04:24:53.606Z,25.90
2018-12-02T04:27:21.790Z,26.00
2018-12-02T04:29:51.047Z,26.00
2018-12-02T04:32:22.835Z,26.00
2018-12-02T04:34:50.998Z,27.60
2018-12-02T04:37:20.389Z,28.60
2018-12-02T04:39:51.867Z,29.50
2018-12-02T04:42:20.083Z,30.30
2018-12-02T04:44:48.422Z,30.60
2018-12-02T04:47:16.703Z,31.40
2018-12-02T04:49:52.216Z,31.30
2018-12-02T04:52:21.351Z,31.80
2018-12-02T04:54:49.508Z,32.00
2018-12-02T04:57:18.792Z,32.90
2018-12-02T04:59:47.376Z,32.50
2018-12-02T05:02:15.154Z,33.00
2018-12-02T05:04:51.077Z,32.50
2018-12-02T05:07:19.384Z,31.50
2018-12-02T05:09:47.544Z,31.80
2018-12-02T05:12:16.772Z,32.10
2018-12-02T05:14:49.517Z,32.10
2018-12-02T05:17:17.719Z,33.00
2018-12-02T05:19:48.006Z,31.50
2018-12-02T05:22:17.239Z,33.00
2018-12-02T05:24:46.410Z,32.40
2018-12-02T05:27:17.931Z,30.40
2018-12-02T05:32:42.151Z,33.90
2018-12-02T05:35:11.296Z,35.80
2018-12-02T05:37:39.436Z,36.30
2018-12-02T05:40:16.459Z,37.80
2018-12-02T05:42:44.579Z,42.40
2018-12-02T05:45:14.335Z,44.20
2018-12-02T05:47:42.514Z,45.20
2018-12-02T05:50:21.354Z,46.30
2018-12-02T05:52:52.768Z,45.10
2018-12-02T05:55:23.058Z,49.00
2018-12-02T05:57:51.170Z,52.50
2018-12-02T06:00:20.431Z,55.20
2018-12-02T06:02:48.544Z,57.70
2018-12-02T06:05:16.649Z,62.30
2018-12-02T06:07:44.790Z,65.60
2018-12-02T06:10:14.714Z,68.80
2018-12-02T06:12:42.898Z,72.00
2018-12-02T06:15:12.838Z,77.70
2018-12-02T06:17:41.031Z,82.50
2018-12-02T06:20:12.334Z,85.70
2018-12-02T06:22:40.457Z,87.90
2018-12-02T06:25:09.307Z,89.60
2018-12-02T06:27:38.050Z,90.30
2018-12-02T06:30:28.465Z,91.20
2018-12-02T06:33:01.722Z,91.00
2018-12-02T06:35:29.843Z,91.70
2018-12-02T06:37:59.297Z,92.10
2018-12-02T06:40:28.258Z,92.50
2018-12-02T06:42:56.691Z,92.70
2018-12-02T06:45:24.814Z,92.40
2018-12-02T06:47:53.019Z,93.30
2018-12-02T06:50:22.808Z,93.60
2018-12-02T06:52:51.139Z,93.20
2018-12-02T06:55:23.950Z,93.50
2018-12-02T06:57:54.976Z,93.70
2018-12-02T07:00:37.290Z,94.20
2018-12-02T07:03:28.758Z,94.50
2018-12-02T07:05:56.900Z,94.40
2018-12-02T07:08:25.014Z,94.70
2018-12-02T07:10:53.127Z,95.30
2018-12-02T07:13:21.339Z,95.20
2018-12-02T07:15:49.466Z,94.90
2018-12-02T07:18:19.719Z,94.90
2018-12-02T07:20:47.834Z,94.90
2018-12-02T07:23:15.971Z,96.10
2018-12-02T07:25:44.102Z,95.10
2018-12-02T07:28:12.775Z,95.40
2018-12-02T07:30:40.898Z,95.10
2018-12-02T07:33:09.009Z,95.50
2018-12-02T07:35:37.166Z,95.70
2018-12-02T07:38:13.534Z,94.60
2018-12-02T07:40:42.148Z,95.30
2018-12-02T07:43:11.446Z,94.40
2018-12-02T07:45:39.584Z,93.90
2018-12-02T07:48:07.721Z,94.20
2018-12-02T07:50:35.859Z,94.20
2018-12-02T07:53:03.965Z,94.10
2018-12-02T07:55:32.096Z,94.20
2018-12-02T07:58:00.224Z,94.50
2018-12-02T08:00:28.375Z,94.20
2018-12-02T08:02:56.491Z,94.40
2018-12-02T08:05:24.610Z,94.30
2018-12-02T08:07:52.873Z,94.40
2018-12-02T08:10:21.009Z,94.20
2018-12-02T08:12:49.138Z,94.90
2018-12-02T08:15:19.155Z,95.30
2018-12-02T08:17:47.290Z,94.90
2018-12-02T08:20:17.143Z,94.60
2018-12-02T08:22:51.107Z,94.50
2018-12-02T08:25:17.986Z,94.20
2018-12-02T08:27:46.200Z,94.30
2018-12-02T08:30:23.446Z,94.40
2018-12-02T08:32:51.645Z,94.20
2018-12-02T08:35:21.047Z,93.90
2018-12-02T08:37:51.742Z,94.40
2018-12-02T08:40:19.895Z,94.40
2018-12-02T08:42:48.000Z,94.10
2018-12-02T08:45:17.086Z,94.50
2018-12-02T08:47:45.369Z,94.80
2018-12-02T08:50:17.425Z,94.20
2018-12-02T08:52:46.435Z,94.60
2018-12-02T08:55:15.722Z,94.50
2018-12-02T08:57:44.011Z,94.30
2018-12-02T09:00:14.327Z,94.30
2018-12-02T09:02:43.230Z,94.80
2018-12-02T09:05:12.526Z,94.20
2018-12-02T09:07:40.744Z,94.50
2018-12-02T09:10:15.364Z,94.60
2018-12-02T09:12:43.472Z,94.00
2018-12-02T09:15:11.569Z,94.60
2018-12-02T09:17:39.727Z,95.00
2018-12-02T09:20:15.270Z,95.20
2018-12-02T09:22:43.383Z,94.90
2018-12-02T09:25:11.503Z,95.10
2018-12-02T09:27:39.661Z,95.10
2018-12-02T09:30:11.230Z,94.30
2018-12-02T09:32:39.356Z,95.00
2018-12-02T09:35:08.449Z,94.30
2018-12-02T09:37:36.607Z,95.30
2018-12-02T09:40:07.934Z,94.90
2018-12-02T09:42:36.045Z,94.90
2018-12-02T09:45:04.407Z,94.90
2018-12-02T09:47:32.531Z,94.30
2018-12-02T09:50:00.631Z,94.50
2018-12-02T09:52:28.766Z,94.60
2018-12-02T09:54:56.896Z,94.80
2018-12-02T09:57:25.018Z,94.20
2018-12-02T09:59:53.135Z,94.40
2018-12-02T10:02:21.261Z,94.50
2018-12-02T10:04:49.375Z,95.20
2018-12-02T10:07:17.484Z,94.60
2018-12-02T10:09:45.661Z,94.80
2018-12-02T10:12:13.881Z,95.10
2018-12-02T10:14:41.990Z,95.10
2018-12-02T10:17:10.095Z,95.90
2018-12-02T10:19:38.182Z,95.90
2018-12-02T10:22:06.295Z,96.20
2018-12-02T10:24:34.394Z,95.50
2018-12-02T10:27:02.510Z,95.70
2018-12-02T10:29:30.596Z,96.00
2018-12-02T10:31:58.678Z,96.00
2018-12-02T10:34:26.770Z,96.00
2018-12-02T10:36:54.882Z,96.00
2018-12-02T10:39:22.975Z,96.10
2018-12-02T10:41:51.079Z,96.20
2018-12-02T10:44:23.925Z,96.00
2018-12-02T10:46:52.111Z,95.90
2018-12-02T10:49:20.210Z,96.30
2018-12-02T10:51:48.287Z,96.40
2018-12-02T10:54:16.414Z,96.20
2018-12-02T10:56:44.501Z,96.30
2018-12-02T10:59:12.610Z,96.30
2018-12-02T11:01:43.258Z,96.50
2018-12-02T11:04:11.342Z,96.10
2018-12-02T11:06:39.425Z,96.10
2018-12-02T11:09:09.890Z,95.80
2018-12-02T11:11:38.022Z,95.90
2018-12-02T11:14:06.410Z,95.50
2018-12-02T11:16:34.554Z,95.60
2018-12-02T11:19:02.642Z,95.50
2018-12-02T11:21:30.755Z,95.50
2018-12-02T11:23:58.854Z,95.70
2018-12-02T11:26:26.942Z,95.70
2018-12-02T11:28:55.034Z,95.60
2018-12-02T11:31:23.122Z,95.90
2018-12-02T11:33:51.198Z,96.40
2018-12-02T11:36:19.266Z,96.10
2018-12-02T11:38:47.346Z,96.50
2018-12-02T11:41:15.426Z,96.60
2018-12-02T11:43:43.498Z,96.40
2018-12-02T11:46:11.614Z,96.70
2018-12-02T11:48:39.698Z,96.40
2018-12-02T11:51:07.775Z,96.50
2018-12-02T11:53:35.874Z,96.30
2018-12-02T11:56:03.959Z,96.50
2018-12-02T11:58:32.042Z,96.90
2018-12-02T12:01:00.114Z,96.50
2018-12-02T12:03:28.194Z,96.40
2018-12-02T12:05:56.278Z,96.60
2018-12-02T12:08:24.362Z,96.40
2018-12-02T12:10:52.447Z,96.40
2018-12-02T12:13:20.526Z,96.70
2018-12-02T12:15:48.595Z,96.50
2018-12-02T12:18:16.690Z,98.30
2018-12-02T12:20:44.759Z,97.00
2018-12-02T12:23:18.563Z,97.10
2018-12-02T12:25:46.723Z,97.00
2018-12-02T12:28:14.806Z,97.10
2018-12-02T12:30:42.898Z,97.10
2018-12-02T12:33:11.495Z,97.70
2018-12-02T12:35:47.079Z,97.50
2018-12-02T12:38:15.162Z,97.70
2018-12-02T12:40:43.754Z,98.30
2018-12-02T12:43:33.742Z,98.70
2018-12-02T12:46:02.446Z,98.40
2018-12-02T12:48:30.516Z,98.60
2018-12-02T12:50:58.600Z,98.20
2018-12-02T12:53:26.675Z,98.50
2018-12-02T12:55:54.764Z,98.40
2018-12-02T12:58:22.859Z,98.50
2018-12-02T13:00:50.966Z,98.30
2018-12-02T13:03:19.042Z,98.40
2018-12-02T13:05:47.278Z,99.00
2018-12-02T13:08:15.859Z,98.60
2018-12-02T13:10:43.948Z,98.80
2018-12-02T13:13:12.570Z,98.80
2018-12-02T13:15:40.660Z,99.10
2018-12-02T13:18:09.812Z,99.00
2018-12-02T13:20:42.188Z,99.00
2018-12-02T13:23:10.255Z,99.10
2018-12-02T13:25:38.339Z,99.30
2018-12-02T13:28:07.118Z,99.10
2018-12-02T13:30:35.239Z,99.30
2018-12-02T13:33:03.314Z,98.50
2018-12-02T13:35:31.394Z,99.40
2018-12-02T13:37:59.563Z,99.40
2018-12-02T13:40:27.639Z,99.80
2018-12-02T13:42:59.835Z,99.90
2018-12-02T13:45:29.055Z,99.90
2018-12-02T13:47:57.138Z,99.90
2018-12-02T13:50:25.227Z,99.90
2018-12-02T13:52:55.094Z,99.90
2018-12-02T13:55:24.526Z,99.90
2018-12-02T13:57:52.800Z,99.90
2018-12-02T14:00:23.824Z,99.90
2018-12-02T14:02:54.356Z,99.90
2018-12-02T14:05:22.450Z,99.90
2018-12-02T14:07:50.531Z,99.90
2018-12-02T14:10:18.622Z,99.90
2018-12-02T14:12:50.125Z,99.90
2018-12-02T14:15:25.774Z,99.90
2018-12-02T14:18:03.458Z,99.90
2018-12-02T14:20:31.551Z,99.90
2018-12-02T14:22:59.627Z,99.90
2018-12-02T14:25:27.723Z,99.90
2018-12-02T14:27:55.806Z,99.90
2018-12-02T14:30:23.903Z,99.90
2018-12-02T14:32:51.978Z,99.90
2018-12-02T14:35:20.070Z,99.90
2018-12-02T14:37:48.153Z,99.90
2018-12-02T14:40:16.256Z,99.90
2018-12-02T14:42:44.842Z,99.90
2018-12-02T14:45:15.787Z,99.90
2018-12-02T14:47:43.942Z,99.90
2018-12-02T14:50:14.751Z,99.90
2018-12-02T14:52:43.734Z,99.90
2018-12-02T14:55:14.390Z,99.90
2018-12-02T14:57:42.483Z,99.90
2018-12-02T15:00:13.493Z,99.90
2018-12-02T15:02:41.579Z,99.90
2018-12-02T15:05:10.810Z,99.90
2018-12-02T15:07:38.898Z,99.90
2018-12-02T15:10:13.375Z,99.90
2018-12-02T15:12:41.521Z,99.90
2018-12-02T15:15:12.182Z,99.90
2018-12-02T15:17:40.410Z,99.90
2018-12-02T15:20:12.565Z,99.90
2018-12-02T15:22:40.686Z,99.90
2018-12-02T15:25:11.339Z,99.90
2018-12-02T15:27:39.438Z,99.90
2018-12-02T15:30:14.814Z,99.90
2018-12-02T15:32:45.365Z,99.90
2018-12-02T15:35:13.454Z,99.90
2018-12-02T15:37:42.654Z,99.90
2018-12-02T15:40:13.874Z,99.90
2018-12-02T15:42:45.580Z,99.90
2018-12-02T15:45:14.114Z,99.90
2018-12-02T15:47:42.223Z,99.90
2018-12-02T15:50:15.878Z,99.90
2018-12-02T15:52:44.118Z,99.90
2018-12-02T15:55:15.599Z,99.90
2018-12-02T15:57:43.707Z,99.90
2018-12-02T16:00:18.215Z,99.90
2018-12-02T16:02:46.322Z,99.90
2018-12-02T16:05:14.431Z,99.90
2018-12-02T16:07:42.555Z,99.90
2018-12-02T16:10:12.712Z,99.90
2018-12-02T16:12:41.950Z,99.90
2018-12-02T16:15:12.462Z,99.90
2018-12-02T16:17:40.598Z,99.90
2018-12-02T16:20:10.455Z,99.90
2018-12-02T16:22:38.557Z,99.90
2018-12-02T16:25:07.924Z,99.90
2018-12-02T16:27:36.033Z,99.90
2018-12-02T16:30:10.003Z,99.90
2018-12-02T16:32:38.107Z,99.90
2018-12-02T16:35:07.785Z,99.90
2018-12-02T16:37:35.889Z,99.90
2018-12-02T16:40:04.640Z,99.90
2018-12-02T16:42:32.725Z,99.90
2018-12-02T16:45:00.809Z,99.90
2018-12-02T16:47:28.895Z,99.90
2018-12-02T16:49:56.978Z,99.90
2018-12-02T16:52:25.070Z,99.90
2018-12-02T16:54:53.134Z,99.90
2018-12-02T16:57:21.218Z,99.90
2018-12-02T16:59:49.404Z,99.90
2018-12-02T17:02:17.491Z,99.90
2018-12-02T17:04:45.574Z,99.90
2018-12-02T17:07:13.654Z,99.90
2018-12-02T17:09:41.742Z,99.90
2018-12-02T17:12:09.830Z,99.90
2018-12-02T17:14:38.844Z,99.90
2018-12-02T17:17:06.114Z,99.90
2018-12-02T17:19:34.219Z,99.90
2018-12-02T17:22:02.314Z,99.90
2018-12-02T17:24:30.379Z,99.90
2018-12-02T17:26:58.472Z,99.90
2018-12-02T17:29:26.568Z,99.90
2018-12-02T17:32:06.214Z,99.90
2018-12-02T17:34:34.298Z,99.90
2018-12-02T17:37:03.449Z,99.90
2018-12-02T17:39:32.899Z,99.90
2018-12-02T17:42:06.539Z,99.90
2018-12-02T17:44:34.646Z,99.90
2018-12-02T17:47:02.760Z,99.90
2018-12-02T17:49:31.876Z,99.90
2018-12-02T17:51:59.951Z,99.90
2018-12-02T17:54:28.139Z,99.90
2018-12-02T17:56:56.215Z,99.90
2018-12-02T17:59:24.306Z,99.90
2018-12-02T18:01:52.377Z,99.90
2018-12-02T18:04:20.474Z,99.90
2018-12-02T18:06:48.554Z,99.90
2018-12-02T18:09:16.646Z,99.90
2018-12-02T18:11:44.730Z,99.90
2018-12-02T18:14:13.697Z,99.90
2018-12-02T18:16:41.785Z,99.90
2018-12-02T18:19:09.886Z,99.90
2018-12-02T18:21:37.993Z,99.90
2018-12-02T18:24:06.495Z,99.90
2018-12-02T18:26:34.575Z,99.90
2018-12-02T18:29:02.657Z,99.90
2018-12-02T18:31:30.799Z,99.90
2018-12-02T18:33:59.914Z,99.90
2018-12-02T18:36:30.934Z,99.90
2018-12-02T18:38:59.026Z,99.90
2018-12-02T18:41:36.194Z,99.90
2018-12-02T18:44:04.993Z,99.90
2018-12-02T18:46:33.062Z,99.90
2018-12-02T18:49:01.228Z,99.90
2018-12-02T18:51:29.278Z,99.90
2018-12-02T18:53:57.386Z,99.90
2018-12-02T18:56:25.494Z,99.90
2018-12-02T18:58:53.606Z,99.90
2018-12-02T19:01:21.692Z,99.90
2018-12-02T19:03:49.806Z,99.90
2018-12-02T19:06:17.889Z,99.90
2018-12-02T19:08:45.995Z,99.90
2018-12-02T19:11:14.109Z,99.90
2018-12-02T19:13:43.747Z,99.90
2018-12-02T19:16:10.303Z,99.90
2018-12-02T19:18:38.725Z,99.90
2018-12-02T19:21:12.610Z,99.90
2018-12-02T19:23:40.726Z,99.90
2018-12-02T19:26:08.818Z,99.90
2018-12-02T19:28:36.914Z,99.90
2018-12-02T19:31:05.146Z,99.90
2018-12-02T19:33:33.303Z,99.90
2018-12-02T19:36:05.764Z,99.90
2018-12-02T19:38:33.862Z,99.90
2018-12-02T19:41:01.971Z,99.90
2018-12-02T19:43:30.063Z,99.90
2018-12-02T19:45:58.198Z,99.90
2018-12-02T19:48:26.317Z,99.90
2018-12-02T19:50:54.430Z,99.90
2018-12-02T19:53:22.527Z,99.90
2018-12-02T19:55:50.671Z,99.90
2018-12-02T19:58:18.766Z,99.90
2018-12-02T20:00:47.094Z,99.90
2018-12-02T20:03:16.279Z,99.90
2018-12-02T20:05:45.386Z,99.90
2018-12-02T20:08:14.379Z,99.90
2018-12-02T20:10:47.054Z,99.90
2018-12-02T20:13:16.343Z,99.90
2018-12-02T20:15:50.327Z,99.90
2018-12-02T20:18:18.490Z,99.90
2018-12-02T20:20:49.233Z,99.90
2018-12-02T20:23:23.542Z,99.90
2018-12-02T20:25:53.922Z,99.90
2018-12-02T20:28:23.662Z,99.90
2018-12-02T20:30:51.762Z,99.90
2018-12-02T20:33:19.861Z,99.90
2018-12-02T20:35:47.971Z,99.90
2018-12-02T20:38:16.071Z,99.90
2018-12-02T20:40:44.191Z,99.90
2018-12-02T20:43:13.243Z,99.90
2018-12-02T20:45:41.355Z,99.90
2018-12-02T20:48:09.450Z,99.90
2018-12-02T20:50:37.562Z,99.90
2018-12-02T20:53:05.675Z,99.90
2018-12-02T20:55:33.931Z,99.90
2018-12-02T20:58:02.706Z,99.90
2018-12-02T21:00:30.815Z,99.90
2018-12-02T21:03:01.222Z,99.90
2018-12-02T21:05:31.971Z,99.90
2018-12-02T21:08:00.143Z,99.90
2018-12-02T21:10:28.247Z,99.90
2018-12-02T21:12:56.345Z,99.90
2018-12-02T21:15:24.458Z,99.90
2018-12-02T21:17:52.910Z,99.90
2018-12-02T21:20:21.037Z,99.90
2018-12-02T21:22:49.124Z,99.90
2018-12-02T21:25:21.766Z,99.90
2018-12-02T21:27:49.882Z,99.90
2018-12-02T21:30:20.758Z,99.90
2018-12-02T21:32:48.855Z,99.90
2018-12-02T21:35:16.946Z,99.90
2018-12-02T21:37:45.402Z,99.90
2018-12-02T21:40:15.490Z,99.90
2018-12-02T21:42:43.614Z,99.90
2018-12-02T21:45:13.807Z,99.90
2018-12-02T21:47:43.622Z,99.90
2018-12-02T21:50:15.262Z,99.90
2018-12-02T21:52:43.353Z,99.90
2018-12-02T21:55:12.128Z,99.90
2018-12-02T21:57:40.228Z,99.90
2018-12-02T22:00:18.673Z,99.90
2018-12-02T22:02:46.874Z,99.90
2018-12-02T22:05:14.976Z,99.90
2018-12-02T22:07:43.094Z,99.90
2018-12-02T22:10:12.838Z,99.90
2018-12-02T22:12:40.926Z,99.90
2018-12-02T22:15:09.155Z,99.90
2018-12-02T22:17:37.250Z,99.90
2018-12-02T22:20:10.658Z,99.90
2018-12-02T22:22:38.918Z,99.90
2018-12-02T22:25:14.174Z,99.90
2018-12-02T22:27:44.502Z,99.90
2018-12-02T22:30:14.006Z,99.90
2018-12-02T22:32:42.250Z,99.90
2018-12-02T22:35:11.495Z,99.90
2018-12-02T22:37:39.674Z,99.90
2018-12-02T22:40:19.642Z,99.90
2018-12-02T22:42:47.741Z,99.90
2018-12-02T22:45:20.150Z,99.90
2018-12-02T22:47:48.338Z,99.90
2018-12-02T22:50:17.389Z,99.90
2018-12-02T22:52:46.625Z,99.90
2018-12-02T22:55:14.802Z,99.90
2018-12-02T22:57:42.978Z,99.90
2018-12-02T23:00:36.238Z,99.90
2018-12-02T23:03:09.801Z,99.90
2018-12-02T23:05:38.006Z,99.90
2018-12-02T23:08:06.432Z,99.90
2018-12-02T23:10:34.558Z,99.90
2018-12-02T23:13:02.743Z,99.90
2018-12-02T23:15:30.922Z,99.90
2018-12-02T23:17:59.114Z,99.90
2018-12-02T23:20:27.274Z,99.90
2018-12-02T23:22:55.453Z,99.90
2018-12-02T23:25:23.618Z,99.90
2018-12-02T23:27:51.939Z,99.90
2018-12-02T23:30:21.646Z,99.90
2018-12-02T23:32:49.811Z,99.90
2018-12-02T23:35:17.923Z,99.90
2018-12-02T23:37:46.071Z,99.90
2018-12-02T23:40:21.565Z,99.90
2018-12-02T23:42:49.681Z,99.90
2018-12-02T23:45:17.967Z,99.90
2018-12-02T23:47:46.078Z,99.90
2018-12-02T23:50:20.205Z,99.90
2018-12-02T23:52:48.394Z,99.90
2018-12-02T23:55:17.495Z,99.90
2018-12-02T23:57:45.784Z,99.90
